createdAt,value
2019-06-20T00:00:48.256Z,23.10
2019-06-20T00:03:17.833Z,23.00
2019-06-20T00:05:54.660Z,23.00
2019-06-20T00:08:24.179Z,23.00
2019-06-20T00:11:00.840Z,22.90
2019-06-20T00:13:30.468Z,22.90
2019-06-20T00:16:06.997Z,22.90
2019-06-20T00:18:36.514Z,22.90
2019-06-20T00:21:12.342Z,22.80
2019-06-20T00:23:41.781Z,22.70
2019-06-20T00:26:11.254Z,22.70
2019-06-20T00:28:47.262Z,22.60
2019-06-20T00:31:22.889Z,22.70
2019-06-20T00:33:58.564Z,22.60
2019-06-20T00:36:35.109Z,22.70
2019-06-20T00:39:06.996Z,22.70
2019-06-20T00:41:44.009Z,22.60
2019-06-20T00:44:13.459Z,22.60
2019-06-20T00:46:49.504Z,22.60
2019-06-20T00:49:32.118Z,22.50
2019-06-20T00:52:07.758Z,22.50
2019-06-20T00:54:37.274Z,22.30
2019-06-20T00:57:13.259Z,22.30
2019-06-20T00:59:42.788Z,22.30
2019-06-20T01:02:24.965Z,22.30
2019-06-20T01:04:54.420Z,22.30
2019-06-20T01:07:30.297Z,22.30
2019-06-20T01:09:59.756Z,22.30
2019-06-20T01:12:35.886Z,22.20
2019-06-20T01:15:17.492Z,22.20
2019-06-20T01:17:47.044Z,22.20
2019-06-20T01:20:23.779Z,22.20
2019-06-20T01:22:53.214Z,22.10
2019-06-20T01:25:48.396Z,22.10
2019-06-20T01:28:24.526Z,22.10
2019-06-20T01:31:00.430Z,22.10
2019-06-20T01:33:30.077Z,22.10
2019-06-20T01:35:59.528Z,22.00
2019-06-20T01:38:35.822Z,22.00
2019-06-20T01:41:06.357Z,22.00
2019-06-20T01:43:50.607Z,22.00
2019-06-20T01:46:20.831Z,22.00
2019-06-20T01:48:57.279Z,21.90
2019-06-20T01:51:40.043Z,21.90
2019-06-20T01:54:09.565Z,21.90
2019-06-20T01:56:45.590Z,21.90
2019-06-20T01:59:15.035Z,21.90
2019-06-20T02:01:51.519Z,21.70
2019-06-20T02:04:21.023Z,21.40
2019-06-20T02:06:57.678Z,21.40
2019-06-20T02:09:27.193Z,21.50
2019-06-20T02:12:02.886Z,21.50
2019-06-20T02:14:39.236Z,21.50
2019-06-20T02:17:08.829Z,21.30
2019-06-20T02:19:44.493Z,21.40
2019-06-20T02:22:14.011Z,21.40
2019-06-20T02:24:50.262Z,21.40
2019-06-20T02:27:21.161Z,21.40
2019-06-20T02:29:57.148Z,21.40
2019-06-20T02:32:26.593Z,21.50
2019-06-20T02:35:02.202Z,21.50
2019-06-20T02:37:43.871Z,21.50
2019-06-20T02:40:13.720Z,21.50
2019-06-20T02:42:43.237Z,21.50
2019-06-20T02:45:19.647Z,21.50
2019-06-20T02:47:49.101Z,21.50
2019-06-20T02:50:31.676Z,21.50
2019-06-20T02:53:08.032Z,21.50
2019-06-20T02:55:37.682Z,21.50
2019-06-20T02:58:14.024Z,21.50
2019-06-20T03:01:02.314Z,21.50
2019-06-20T03:03:31.983Z,21.40
2019-06-20T03:06:01.497Z,21.40
2019-06-20T03:08:37.728Z,21.40
2019-06-20T03:11:07.175Z,21.50
2019-06-20T03:13:43.155Z,21.50
2019-06-20T03:16:19.023Z,21.40
2019-06-20T03:18:48.469Z,21.40
2019-06-20T03:21:18.066Z,21.30
2019-06-20T03:23:54.034Z,21.30
2019-06-20T03:26:23.495Z,21.40
2019-06-20T03:29:00.260Z,21.50
2019-06-20T03:31:36.630Z,21.60
2019-06-20T03:34:19.213Z,21.60
2019-06-20T03:36:55.724Z,21.70
2019-06-20T03:39:25.154Z,21.80
2019-06-20T03:42:01.689Z,21.80
2019-06-20T03:44:31.203Z,22.00
2019-06-20T03:47:07.255Z,22.00
2019-06-20T03:49:50.027Z,22.10
2019-06-20T03:52:33.434Z,22.00
2019-06-20T03:55:03.142Z,22.10
2019-06-20T03:57:39.685Z,22.10
2019-06-20T04:00:10.145Z,22.30
2019-06-20T04:02:39.608Z,22.40
2019-06-20T04:05:16.745Z,22.40
2019-06-20T04:07:52.401Z,22.50
2019-06-20T04:10:28.618Z,22.50
2019-06-20T04:12:58.137Z,22.50
2019-06-20T04:15:33.840Z,22.50
2019-06-20T04:18:03.293Z,22.50
2019-06-20T04:20:39.100Z,22.50
2019-06-20T04:23:08.547Z,22.60
2019-06-20T04:25:44.599Z,22.70
2019-06-20T04:28:14.128Z,22.70
2019-06-20T04:30:49.752Z,22.70
2019-06-20T04:33:19.217Z,22.70
2019-06-20T04:36:01.506Z,22.70
2019-06-20T04:38:31.056Z,22.80
2019-06-20T04:41:07.045Z,22.80
2019-06-20T04:43:36.869Z,22.80
2019-06-20T04:46:14.103Z,22.90
2019-06-20T04:48:43.559Z,23.00
2019-06-20T04:51:19.764Z,23.10
2019-06-20T04:53:55.671Z,23.20
2019-06-20T04:56:38.146Z,23.30
2019-06-20T04:59:07.628Z,23.30
2019-06-20T05:01:44.135Z,23.40
2019-06-20T05:04:13.671Z,23.50
2019-06-20T05:06:53.595Z,23.60
2019-06-20T05:09:23.065Z,23.70
2019-06-20T05:11:58.714Z,23.80
2019-06-20T05:14:35.224Z,23.80
2019-06-20T05:17:10.873Z,24.00
2019-06-20T05:19:41.804Z,24.10
2019-06-20T05:22:17.631Z,24.20
2019-06-20T05:24:47.095Z,24.30
2019-06-20T05:27:23.161Z,24.40
2019-06-20T05:29:59.218Z,24.50
2019-06-20T05:32:28.690Z,24.70
2019-06-20T05:35:04.954Z,24.80
2019-06-20T05:37:34.380Z,25.00
2019-06-20T05:40:11.417Z,25.10
2019-06-20T05:42:40.955Z,25.30
2019-06-20T05:45:18.522Z,25.50
2019-06-20T05:47:48.051Z,25.70
2019-06-20T05:50:24.833Z,25.80
2019-06-20T05:53:07.619Z,26.00
2019-06-20T05:55:44.414Z,26.20
2019-06-20T05:58:13.967Z,26.30
2019-06-20T06:00:50.633Z,26.50
2019-06-20T06:03:26.889Z,26.70
2019-06-20T06:05:56.435Z,26.90
2019-06-20T06:08:32.705Z,27.00
2019-06-20T06:11:02.277Z,27.20
2019-06-20T06:13:38.289Z,27.40
2019-06-20T06:16:07.881Z,27.50
2019-06-20T06:18:44.025Z,27.70
2019-06-20T06:21:13.656Z,27.70
2019-06-20T06:23:43.172Z,27.90
2019-06-20T06:26:18.994Z,28.00
2019-06-20T06:28:55.022Z,28.10
2019-06-20T06:31:24.575Z,28.20
2019-06-20T06:33:54.019Z,28.40
2019-06-20T06:36:30.292Z,28.60
2019-06-20T06:39:09.485Z,28.80
2019-06-20T06:41:46.192Z,28.90
2019-06-20T06:44:22.220Z,29.00
2019-06-20T06:46:57.523Z,28.80
2019-06-20T06:49:30.016Z,29.00
2019-06-20T06:51:59.672Z,29.10
2019-06-20T06:54:41.999Z,29.00
2019-06-20T06:57:17.494Z,29.00
2019-06-20T06:59:53.318Z,28.80
2019-06-20T07:02:22.980Z,29.10
2019-06-20T07:04:59.374Z,29.40
2019-06-20T07:07:35.271Z,29.60
2019-06-20T07:10:07.352Z,29.80
2019-06-20T07:12:43.051Z,29.80
2019-06-20T07:15:14.398Z,29.60
2019-06-20T07:17:50.877Z,29.60
2019-06-20T07:20:27.014Z,29.70
2019-06-20T07:22:56.554Z,29.70
2019-06-20T07:25:32.184Z,29.90
2019-06-20T07:28:01.669Z,29.90
2019-06-20T07:30:38.095Z,30.10
2019-06-20T07:33:14.578Z,30.30
2019-06-20T07:35:45.377Z,29.90
2019-06-20T07:38:21.296Z,29.90
2019-06-20T07:40:56.971Z,30.00
2019-06-20T07:43:26.490Z,30.00
2019-06-20T07:46:03.377Z,30.00
2019-06-20T07:48:39.024Z,30.00
2019-06-20T07:51:08.549Z,30.10
2019-06-20T07:53:44.434Z,30.20
2019-06-20T07:56:27.601Z,30.50
2019-06-20T07:59:03.316Z,30.70
2019-06-20T08:01:32.932Z,31.00
2019-06-20T08:04:09.413Z,30.90
2019-06-20T08:06:38.949Z,31.20
2019-06-20T08:09:16.394Z,31.20
2019-06-20T08:11:46.053Z,31.10
2019-06-20T08:14:22.042Z,31.50
2019-06-20T08:16:51.558Z,31.80
2019-06-20T08:19:28.096Z,32.00
2019-06-20T08:21:57.545Z,32.20
2019-06-20T08:24:34.256Z,32.40
2019-06-20T08:27:04.914Z,32.60
2019-06-20T08:29:41.027Z,32.60
2019-06-20T08:32:10.626Z,32.70
2019-06-20T08:34:46.754Z,32.70
2019-06-20T08:37:16.358Z,32.90
2019-06-20T08:39:52.435Z,32.90
2019-06-20T08:42:21.988Z,33.00
2019-06-20T08:45:03.973Z,33.20
2019-06-20T08:47:33.753Z,33.20
2019-06-20T08:50:10.880Z,33.30
2019-06-20T08:52:46.818Z,33.40
2019-06-20T08:55:25.208Z,33.50
2019-06-20T08:58:07.690Z,33.60
2019-06-20T09:00:38.358Z,33.70
2019-06-20T09:03:16.936Z,33.70
2019-06-20T09:05:46.617Z,33.70
2019-06-20T09:08:22.711Z,33.70
2019-06-20T09:10:54.123Z,33.60
2019-06-20T09:13:30.572Z,33.70
2019-06-20T09:16:00.915Z,33.80
2019-06-20T09:18:37.324Z,34.00
2019-06-20T09:21:07.395Z,34.10
2019-06-20T09:23:43.193Z,34.20
2019-06-20T09:26:19.186Z,34.20
2019-06-20T09:28:55.696Z,34.30
2019-06-20T09:31:25.225Z,34.40
2019-06-20T09:34:04.903Z,34.40
2019-06-20T09:36:32.290Z,34.50
2019-06-20T09:39:08.972Z,34.60
2019-06-20T09:41:45.471Z,34.70
2019-06-20T09:44:14.949Z,34.70
2019-06-20T09:46:52.333Z,34.80
2019-06-20T09:49:29.281Z,34.70
2019-06-20T09:52:12.641Z,34.70
2019-06-20T09:54:44.819Z,34.70
2019-06-20T09:57:27.377Z,34.70
2019-06-20T10:00:09.948Z,34.70
2019-06-20T10:03:01.514Z,34.80
2019-06-20T10:05:38.167Z,34.80
2019-06-20T10:08:14.063Z,34.90
2019-06-20T10:10:43.677Z,35.00
2019-06-20T10:13:13.133Z,35.00
2019-06-20T10:15:49.460Z,35.00
2019-06-20T10:18:19.107Z,35.00
2019-06-20T10:20:48.890Z,35.00
2019-06-20T10:23:24.656Z,35.20
2019-06-20T10:26:00.445Z,35.10
2019-06-20T10:28:29.974Z,35.10
2019-06-20T10:30:59.569Z,35.00
2019-06-20T10:33:35.948Z,35.00
2019-06-20T10:36:06.016Z,35.00
2019-06-20T10:38:42.212Z,35.00
2019-06-20T10:41:11.862Z,35.00
2019-06-20T10:43:47.614Z,35.00
2019-06-20T10:46:24.347Z,34.90
2019-06-20T10:48:54.793Z,34.70
2019-06-20T10:51:45.966Z,34.40
2019-06-20T10:54:22.618Z,34.50
2019-06-20T10:56:58.456Z,34.50
2019-06-20T10:59:42.670Z,34.60
2019-06-20T11:02:12.274Z,34.70
2019-06-20T11:04:49.801Z,34.60
2019-06-20T11:07:19.514Z,34.70
2019-06-20T11:09:56.321Z,34.80
2019-06-20T11:12:42.850Z,34.70
2019-06-20T11:15:05.355Z,34.70
2019-06-20T11:17:41.957Z,34.40
2019-06-20T11:20:12.681Z,34.30
2019-06-20T11:22:48.741Z,34.10
2019-06-20T11:25:25.194Z,33.90
2019-06-20T11:27:54.796Z,33.70
2019-06-20T11:30:53.307Z,33.50
2019-06-20T11:33:23.137Z,33.20
2019-06-20T11:35:52.854Z,31.40
2019-06-20T11:38:33.337Z,29.60
2019-06-20T11:41:03.984Z,25.90
2019-06-20T11:43:40.129Z,25.00
2019-06-20T11:46:28.159Z,24.90
2019-06-20T11:49:10.301Z,25.40
2019-06-20T11:51:46.149Z,25.60
2019-06-20T11:54:21.996Z,25.70
2019-06-20T11:56:58.118Z,25.80
2019-06-20T11:59:40.545Z,25.80
2019-06-20T12:02:23.890Z,25.80
2019-06-20T12:04:53.476Z,25.60
2019-06-20T12:07:29.645Z,25.20
2019-06-20T12:09:59.667Z,24.80
2019-06-20T12:12:29.187Z,24.60
2019-06-20T12:15:07.121Z,24.60
2019-06-20T12:17:39.338Z,24.40
2019-06-20T12:20:16.714Z,24.10
2019-06-20T12:22:52.550Z,23.80
2019-06-20T12:25:30.048Z,23.80
2019-06-20T12:28:06.562Z,23.90
2019-06-20T12:30:36.101Z,23.50
2019-06-20T12:33:12.571Z,23.20
2019-06-20T12:35:49.108Z,23.00
2019-06-20T12:38:18.640Z,22.80
2019-06-20T12:40:54.967Z,22.50
2019-06-20T12:43:24.576Z,22.40
2019-06-20T12:46:00.687Z,22.30
2019-06-20T12:48:30.347Z,22.30
2019-06-20T12:51:00.059Z,21.90
2019-06-20T12:53:37.780Z,21.50
2019-06-20T12:56:14.678Z,20.80
2019-06-20T12:58:50.997Z,20.60
2019-06-20T13:01:36.890Z,20.30
2019-06-20T13:04:04.030Z,20.30
2019-06-20T13:06:33.617Z,20.20
2019-06-20T13:09:10.618Z,20.20
2019-06-20T13:11:47.398Z,20.20
2019-06-20T13:14:16.920Z,20.20
2019-06-20T13:16:52.571Z,20.30
2019-06-20T13:19:22.036Z,20.40
2019-06-20T13:21:58.225Z,20.60
2019-06-20T13:24:27.758Z,20.80
2019-06-20T13:27:03.507Z,20.50
2019-06-20T13:29:41.078Z,20.30
2019-06-20T16:15:52.432Z,25.90
2019-06-20T16:18:38.023Z,26.00
2019-06-20T16:21:12.154Z,25.90
2019-06-20T16:24:01.360Z,25.90
2019-06-20T16:26:43.765Z,25.80
2019-06-20T16:29:16.331Z,25.70
2019-06-20T16:31:55.689Z,25.80
2019-06-20T16:34:25.181Z,25.80
2019-06-20T16:37:09.988Z,25.80
2019-06-20T16:39:39.334Z,25.90
2019-06-20T16:42:16.225Z,26.00
2019-06-20T16:44:45.834Z,25.90
2019-06-20T16:47:21.522Z,25.90
2019-06-20T16:49:51.143Z,26.00
2019-06-20T16:52:26.900Z,25.90
2019-06-20T16:55:02.954Z,26.00
2019-06-20T16:57:39.039Z,26.10
2019-06-20T17:00:16.823Z,26.10
2019-06-20T17:03:06.963Z,26.10
2019-06-20T17:05:43.096Z,26.10
2019-06-20T17:08:12.707Z,26.10
2019-06-20T17:10:48.565Z,26.20
2019-06-20T17:13:18.165Z,26.20
2019-06-20T17:15:47.833Z,26.30
2019-06-20T17:18:26.043Z,26.30
2019-06-20T17:20:55.663Z,26.30
2019-06-20T17:23:25.333Z,26.40
2019-06-20T17:26:01.833Z,26.40
2019-06-20T17:28:31.439Z,26.50
2019-06-20T17:31:07.344Z,26.50
2019-06-20T17:33:36.823Z,26.50
2019-06-20T17:36:18.239Z,26.40
2019-06-20T17:38:43.970Z,26.40
2019-06-20T17:41:15.988Z,26.50
2019-06-20T17:43:51.827Z,26.40
2019-06-20T17:46:21.446Z,26.40
2019-06-20T17:48:58.193Z,26.40
2019-06-20T17:51:34.448Z,26.40
2019-06-20T17:54:07.311Z,26.40
2019-06-20T17:56:50.108Z,26.40
2019-06-20T17:59:22.669Z,26.30
2019-06-20T18:01:57.691Z,26.30
2019-06-20T18:04:27.142Z,26.10
2019-06-20T18:07:04.038Z,26.00
2019-06-20T18:09:41.850Z,25.90
2019-06-20T18:12:17.860Z,25.80
2019-06-20T18:14:47.400Z,25.80
2019-06-20T18:17:23.815Z,25.70
2019-06-20T18:19:59.681Z,25.60
2019-06-20T18:22:36.066Z,25.50
2019-06-20T18:25:08.470Z,25.40
2019-06-20T18:27:38.156Z,25.20
2019-06-20T18:30:16.295Z,25.20
2019-06-20T18:32:45.834Z,25.10
2019-06-20T18:35:22.379Z,25.00
2019-06-20T18:37:51.984Z,25.00
2019-06-20T18:40:28.032Z,24.90
2019-06-20T18:42:57.643Z,24.90
2019-06-20T18:45:33.679Z,24.80
2019-06-20T18:48:09.687Z,24.50
2019-06-20T18:50:39.364Z,24.10
2019-06-20T18:53:15.110Z,23.90
2019-06-20T18:55:44.779Z,24.00
2019-06-20T18:58:27.742Z,23.80
2019-06-20T19:00:57.346Z,23.60
2019-06-20T19:03:33.583Z,23.40
2019-06-20T19:06:09.452Z,23.50
2019-06-20T19:08:39.073Z,23.50
2019-06-20T19:11:15.917Z,23.30
2019-06-20T19:13:45.477Z,23.10
2019-06-20T19:16:17.268Z,23.00
2019-06-20T19:18:53.886Z,23.00
2019-06-20T19:21:36.737Z,22.90
2019-06-20T19:24:06.582Z,22.90
2019-06-20T19:26:43.201Z,22.80
2019-06-20T19:29:12.734Z,22.70
2019-06-20T19:31:48.890Z,22.90
2019-06-20T19:34:25.281Z,23.10
2019-06-20T19:36:54.972Z,23.20
2019-06-20T19:39:31.087Z,23.10
2019-06-20T19:42:07.689Z,23.00
2019-06-20T19:44:37.236Z,22.90
2019-06-20T19:47:13.789Z,22.80
2019-06-20T19:49:50.278Z,22.80
2019-06-20T19:52:26.977Z,22.70
2019-06-20T19:54:59.111Z,22.70
2019-06-20T19:57:35.174Z,22.60
2019-06-20T20:00:19.899Z,22.50
2019-06-20T20:02:49.606Z,22.40
2019-06-20T20:05:20.090Z,22.30
2019-06-20T20:08:03.428Z,22.40
2019-06-20T20:10:46.446Z,22.40
2019-06-20T20:13:23.437Z,22.50
2019-06-20T20:16:00.103Z,22.50
2019-06-20T20:18:29.724Z,22.40
2019-06-20T20:21:12.374Z,22.40
2019-06-20T20:23:54.670Z,22.30
2019-06-20T20:26:24.201Z,22.20
2019-06-20T20:29:00.182Z,22.30
2019-06-20T20:31:30.121Z,22.40
2019-06-20T20:34:06.621Z,22.50
2019-06-20T20:36:36.314Z,22.70
2019-06-20T20:39:16.947Z,22.70
2019-06-20T20:41:45.652Z,22.80
2019-06-20T20:44:28.715Z,22.90
2019-06-20T20:46:58.258Z,22.90
2019-06-20T20:49:35.647Z,22.90
2019-06-20T20:52:05.330Z,23.00
2019-06-20T20:54:35.199Z,23.00
2019-06-20T20:57:11.577Z,22.90
2019-06-20T20:59:47.604Z,22.70
2019-06-20T21:02:24.043Z,22.70
2019-06-20T21:04:53.521Z,22.60
2019-06-20T21:07:29.637Z,22.70
2019-06-20T21:09:59.253Z,22.70
2019-06-20T21:12:35.749Z,22.40
2019-06-20T21:15:08.046Z,22.10
2019-06-20T21:17:43.740Z,22.00
2019-06-20T21:20:20.843Z,21.80
2019-06-20T21:23:03.493Z,21.90
2019-06-20T21:25:33.027Z,21.90
2019-06-20T21:28:09.147Z,21.90
2019-06-20T21:30:38.765Z,22.00
2019-06-20T21:33:08.238Z,22.10
2019-06-20T21:35:46.848Z,22.00
2019-06-20T21:38:16.574Z,21.90
2019-06-20T21:40:52.420Z,21.80
2019-06-20T21:43:21.879Z,21.70
2019-06-20T21:45:57.451Z,21.70
2019-06-20T21:48:33.765Z,21.70
2019-06-20T21:51:10.141Z,21.80
2019-06-20T21:53:46.621Z,22.00
2019-06-20T21:56:16.151Z,22.20
2019-06-20T21:58:52.760Z,22.30
2019-06-20T22:01:22.770Z,22.40
2019-06-20T22:03:58.935Z,22.40
2019-06-20T22:06:28.556Z,22.50
2019-06-20T22:09:13.336Z,22.50
2019-06-20T22:11:49.675Z,22.50
2019-06-20T22:14:25.761Z,22.50
2019-06-20T22:16:55.371Z,22.50
2019-06-20T22:19:31.342Z,22.30
2019-06-20T22:22:14.017Z,22.10
2019-06-20T22:24:57.226Z,22.10
2019-06-20T22:27:33.768Z,22.00
2019-06-20T22:30:04.854Z,21.80
2019-06-20T22:32:40.644Z,21.80
2019-06-20T22:35:10.909Z,21.70
2019-06-20T22:37:47.693Z,21.50
2019-06-20T22:40:17.479Z,21.30
2019-06-20T22:42:53.572Z,21.30
2019-06-20T22:45:23.551Z,21.40
2019-06-20T22:47:53.093Z,21.50
2019-06-20T22:50:31.193Z,21.60
2019-06-20T22:53:00.727Z,21.80
2019-06-20T22:55:36.842Z,21.90
2019-06-20T22:58:07.122Z,21.90
2019-06-20T23:00:43.156Z,22.00
2019-06-20T23:03:12.712Z,22.00
2019-06-20T23:05:49.374Z,22.00
2019-06-20T23:08:19.016Z,22.10
2019-06-20T23:11:01.321Z,22.10
2019-06-20T23:13:30.853Z,22.00
2019-06-20T23:16:07.473Z,22.00
2019-06-20T23:18:36.957Z,22.00
2019-06-20T23:21:13.368Z,22.10
2019-06-20T23:23:49.627Z,22.10
2019-06-20T23:26:26.208Z,22.10
2019-06-20T23:29:13.318Z,22.10
2019-06-20T23:31:49.147Z,22.10
2019-06-20T23:34:18.678Z,22.00
2019-06-20T23:36:54.471Z,21.90
2019-06-20T23:39:24.008Z,21.70
2019-06-20T23:41:59.657Z,21.70
2019-06-20T23:44:29.118Z,21.80
2019-06-20T23:47:04.826Z,21.80
2019-06-20T23:49:34.353Z,21.80
2019-06-20T23:52:17.520Z,21.80
2019-06-20T23:54:47.068Z,21.60
2019-06-20T23:57:30.103Z,21.60
2019-06-20T23:59:59.631Z,21.60
